Time;durP1;ratioP1;P1;durP2;ratioP2;P2;SDS_P1;SDS_P2;PMS_P1;PMS_P2;Temp;Humidity;BMP_temperature;BMP_pressure;BME280_temperature;BME280_humidity;BME280_pressure;Samples;Min_cycle;Max_cycle;Signal;HPM_P1;HPM_P2
2022/03/07 00:01:58;;;;;;;6.22;3.55;;;;;;;1.21;100.00;62122.03;5026866;28;20225;-73
2022/03/07 00:04:25;;;;;;;5.85;3.75;;;;;;;1.23;100.00;62122.06;5044612;28;20198;-73
2022/03/07 00:06:52;;;;;;;5.05;3.00;;;;;;;1.29;100.00;62135.75;5044467;28;20238;-74
2022/03/07 00:09:19;;;;;;;4.97;3.03;;;;;;;1.21;100.00;62127.53;5033905;28;20217;-73
2022/03/07 00:11:45;;;;;;;4.28;3.13;;;;;;;1.22;100.00;62126.06;5032053;28;20226;-74
2022/03/07 00:14:13;;;;;;;4.35;3.25;;;;;;;1.19;100.00;62120.97;5044632;28;20225;-72
2022/03/07 00:16:40;;;;;;;4.75;3.17;;;;;;;1.27;100.00;62130.66;5044317;28;20559;-74
2022/03/07 00:19:08;;;;;;;4.32;3.47;;;;;;;1.24;100.00;62128.13;5029067;28;20203;-74
2022/03/07 00:21:36;;;;;;;5.47;3.25;;;;;;;1.27;100.00;62131.19;5037855;28;20305;-73
2022/03/07 00:24:03;;;;;;;4.85;3.83;;;;;;;1.26;100.00;62129.66;5044639;28;20402;-73
2022/03/07 00:26:30;;;;;;;5.72;3.45;;;;;;;1.26;100.00;62129.66;5043139;28;20433;-74
2022/03/07 00:28:57;;;;;;;5.47;3.97;;;;;;;1.19;100.00;62123.00;5043037;28;20206;-73
2022/03/07 00:31:24;;;;;;;5.20;3.58;;;;;;;1.10;100.00;62114.25;5044427;28;20198;-74
2022/03/07 00:33:51;;;;;;;6.85;3.92;;;;;;;1.09;100.00;62113.22;5044897;28;20244;-74
2022/03/07 00:36:20;;;;;;;5.80;3.90;;;;;;;1.14;100.00;62113.34;5035945;28;20202;-74
2022/03/07 00:38:48;;;;;;;7.50;4.28;;;;;;;1.11;100.00;62115.28;5031481;28;20265;-73
2022/03/07 00:41:16;;;;;;;8.55;5.00;;;;;;;1.05;100.00;62111.13;5044358;28;20432;-73
2022/03/07 00:43:43;;;;;;;8.18;4.65;;;;;;;1.01;100.00;62102.00;5046134;28;20419;-73
2022/03/07 00:46:09;;;;;;;13.38;6.97;;;;;;;0.93;100.00;62099.31;5030644;28;20234;-75
2022/03/07 00:48:36;;;;;;;8.27;5.65;;;;;;;0.82;100.00;62085.53;5038126;28;20251;-74
2022/03/07 00:51:03;;;;;;;8.52;5.82;;;;;;;0.74;100.00;62077.31;5054085;28;20198;-74
2022/03/07 00:53:31;;;;;;;8.13;5.60;;;;;;;0.80;100.00;62083.50;5052989;28;20241;-74
2022/03/07 00:55:58;;;;;;;7.95;5.07;;;;;;;0.72;100.00;62074.78;5038889;28;20201;-74
2022/03/07 00:58:25;;;;;;;7.45;4.45;;;;;;;0.82;100.00;62083.03;5046406;28;20214;-74
2022/03/07 01:00:52;;;;;;;8.75;4.65;;;;;;;0.77;100.00;62077.41;5045840;28;20356;-74
2022/03/07 01:03:19;;;;;;;6.70;4.60;;;;;;;0.66;100.00;62066.63;5043596;28;20233;-75
2022/03/07 01:05:47;;;;;;;8.25;4.20;;;;;;;0.75;100.00;62080.34;5043240;28;20542;-74
2022/03/07 01:08:14;;;;;;;9.30;4.40;;;;;;;0.67;100.00;62067.66;5044803;28;20232;-76
2022/03/07 01:10:43;;;;;;;6.70;4.45;;;;;;;0.70;100.00;62072.72;5044381;28;20434;-74
2022/03/07 01:13:10;;;;;;;9.75;4.97;;;;;;;0.76;100.00;62076.38;5042654;28;20234;-74
2022/03/07 01:15:37;;;;;;;8.95;4.68;;;;;;;0.86;100.00;62087.13;5045111;28;20194;-74
2022/03/07 01:18:04;;;;;;;5.97;4.75;;;;;;;0.83;100.00;62083.53;5045294;28;20222;-73
2022/03/07 01:20:32;;;;;;;6.97;4.68;;;;;;;0.84;100.00;62082.59;5043276;28;20240;-74
2022/03/07 01:22:59;;;;;;;8.10;4.85;;;;;;;0.87;100.00;62090.66;5049172;28;20269;-73
2022/03/07 01:25:26;;;;;;;9.82;5.50;;;;;;;0.74;100.00;62081.84;5054791;28;20483;-73
2022/03/07 01:27:54;;;;;;;11.40;5.38;;;;;;;0.64;100.00;62067.06;5055711;28;20229;-75
2022/03/07 01:30:21;;;;;;;9.85;4.78;;;;;;;0.73;100.00;62075.78;5052926;28;20210;-73
2022/03/07 01:32:48;;;;;;;8.05;5.13;;;;;;;0.87;100.00;62087.66;5047601;28;20222;-73
2022/03/07 01:35:15;;;;;;;8.00;5.13;;;;;;;0.77;100.00;62080.41;5044980;28;20244;-73
2022/03/07 01:37:42;;;;;;;8.27;4.72;;;;;;;0.82;100.00;62085.53;5043757;28;20256;-74
2022/03/07 01:40:10;;;;;;;9.38;4.70;;;;;;;0.77;100.00;62082.91;5043713;28;20312;-73
2022/03/07 01:42:37;;;;;;;11.90;5.57;;;;;;;0.74;100.00;62076.81;5047857;28;20534;-73
2022/03/07 01:45:09;;;;;;;10.30;4.97;;;;;;;0.76;100.00;62076.88;5048069;28;20232;-75
2022/03/07 01:47:36;;;;;;;7.63;4.88;;;;;;;0.75;100.00;62077.84;5046736;28;20233;-75
2022/03/07 01:50:04;;;;;;;10.32;4.90;;;;;;;0.76;100.00;62081.38;5048021;28;20543;-73
2022/03/07 01:52:34;;;;;;;8.60;4.75;;;;;;;0.75;100.00;62075.84;5047672;28;20217;-74
2022/03/07 01:55:01;;;;;;;6.85;4.63;;;;;;;0.74;100.00;62079.81;5047819;28;20218;-74
2022/03/07 01:57:30;;;;;;;8.77;5.40;;;;;;;0.70;100.00;62075.22;5043469;28;20252;-74
2022/03/07 01:59:57;;;;;;;9.35;5.13;;;;;;;0.74;100.00;62077.31;5046941;28;20389;-73
2022/03/07 02:02:25;;;;;;;7.65;4.93;;;;;;;0.84;100.00;62084.56;5046199;28;20228;-74
2022/03/07 02:04:52;;;;;;;11.27;5.10;;;;;;;0.72;100.00;62077.28;5047674;28;20194;-75
2022/03/07 02:07:19;;;;;;;9.88;5.13;;;;;;;0.50;100.00;62049.72;5044718;28;20241;-75
2022/03/07 02:09:46;;;;;;;8.57;4.93;;;;;;;0.39;100.00;62040.94;5047130;28;20201;-73
2022/03/07 02:12:13;;;;;;;7.78;4.57;;;;;;;0.50;100.00;62050.22;5047195;28;20217;-74
2022/03/07 02:14:40;;;;;;;7.90;4.60;;;;;;;0.51;100.00;62048.22;5044172;28;20241;-75
2022/03/07 02:17:06;;;;;;;5.53;4.30;;;;;;;0.49;100.00;62053.69;5045481;28;20225;-74
2022/03/07 02:19:36;;;;;;;7.47;4.88;;;;;;;0.63;100.00;62063.56;5040976;28;20373;-74
2022/03/07 02:22:05;;;;;;;7.82;4.65;;;;;;;0.73;100.00;62078.28;5042696;28;20234;-75
2022/03/07 02:24:32;;;;;;;8.52;5.05;;;;;;;0.84;100.00;62092.09;5044147;28;20491;-74
2022/03/07 02:27:01;;;;;;;9.00;4.30;;;;;;;0.70;100.00;62068.22;5046090;28;20234;-74
2022/03/07 02:29:29;;;;;;;9.48;5.20;;;;;;;0.71;100.00;62071.75;5046564;28;20209;-74
2022/03/07 02:31:55;;;;;;;6.43;4.47;;;;;;;0.66;100.00;62064.13;5047309;28;20217;-73
2022/03/07 02:34:23;;;;;;;10.77;5.20;;;;;;;0.47;100.00;62052.16;5044708;28;20269;-74
2022/03/07 02:36:50;;;;;;;10.27;5.03;;;;;;;0.52;100.00;62056.78;5046839;28;20276;-74
2022/03/07 02:39:19;;;;;;;11.05;5.45;;;;;;;0.64;100.00;62064.56;5045711;28;20250;-74
2022/03/07 02:41:46;;;;;;;6.38;4.70;;;;;;;0.68;100.00;62070.66;5044756;28;20218;-75
2022/03/07 02:44:13;;;;;;;8.02;4.50;;;;;;;0.72;100.00;62072.28;5043650;28;20198;-74
2022/03/07 02:46:40;;;;;;;8.95;4.60;;;;;;;0.60;100.00;62063.00;5045772;28;20233;-75
2022/03/07 02:49:07;;;;;;;8.07;3.78;;;;;;;0.75;100.00;62072.84;5046257;28;20243;-74
2022/03/07 02:51:35;;;;;;;8.13;4.80;;;;;;;0.71;100.00;62073.72;5042199;28;20222;-74
2022/03/07 02:54:02;;;;;;;7.28;5.03;;;;;;;0.68;100.00;62070.66;5045491;28;20510;-75
2022/03/07 02:56:30;;;;;;;4.65;3.75;;;;;;;0.77;100.00;62082.91;5045917;28;20224;-74
2022/03/07 02:58:57;;;;;;;12.13;5.15;;;;;;;0.74;100.00;62076.81;5045652;28;20232;-75
2022/03/07 03:01:24;;;;;;;7.50;5.38;;;;;;;0.73;100.00;62075.78;5040826;28;20194;-73
2022/03/07 03:03:51;;;;;;;9.20;5.43;;;;;;;0.83;100.00;62084.06;5045247;28;20203;-74
2022/03/07 03:06:18;;;;;;;12.05;5.80;;;;;;;0.68;100.00;62070.66;5045069;28;20198;-75
2022/03/07 03:08:45;;;;;;;10.48;5.88;;;;;;;0.66;100.00;62066.63;5045205;28;20198;-74
2022/03/07 03:11:12;;;;;;;7.25;5.15;;;;;;;0.56;100.00;62053.88;5042096;28;20245;-74
2022/03/07 03:13:40;;;;;;;10.20;6.18;;;;;;;0.43;100.00;62045.53;5045259;28;20499;-75
2022/03/07 03:16:07;;;;;;;10.10;6.13;;;;;;;0.48;100.00;62050.16;5044823;28;20244;-73
2022/03/07 03:18:34;;;;;;;11.43;6.45;;;;;;;0.53;100.00;62055.28;5041612;28;20277;-74
2022/03/07 03:21:01;;;;;;;7.35;5.38;;;;;;;0.43;100.00;62045.03;5042326;28;20202;-74
2022/03/07 03:23:28;;;;;;;10.25;5.72;;;;;;;0.39;100.00;62038.94;5045007;28;20235;-74
2022/03/07 03:25:55;;;;;;;10.05;6.55;;;;;;;0.50;100.00;62047.22;5044678;28;20200;-74
2022/03/07 03:28:23;;;;;;;13.60;6.28;;;;;;;0.56;100.00;62055.84;5041398;28;20232;-73
2022/03/07 03:30:52;;;;;;;10.30;5.70;;;;;;;0.63;100.00;62063.03;5044827;28;20213;-75
2022/03/07 03:33:19;;;;;;;12.63;6.43;;;;;;;0.59;100.00;62059.44;5044687;28;20224;-75
2022/03/07 03:35:46;;;;;;;10.38;6.28;;;;;;;0.65;100.00;62068.13;5044926;28;20197;-74
2022/03/07 03:38:12;;;;;;;8.07;5.63;;;;;;;0.51;100.00;62048.75;5043004;28;20229;-73
2022/03/07 03:40:39;;;;;;;10.75;6.22;;;;;;;0.54;100.00;62056.31;5044454;28;20495;-74
2022/03/07 03:43:07;;;;;;;9.93;5.65;;;;;;;0.55;100.00;62057.34;5045636;28;20227;-74
2022/03/07 03:45:34;;;;;;;8.73;6.20;;;;;;;0.61;100.00;62061.50;5043551;28;20244;-74
2022/03/07 03:48:02;;;;;;;10.88;6.35;;;;;;;0.69;100.00;62077.22;5046337;28;20233;-74
2022/03/07 03:50:29;;;;;;;8.93;6.05;;;;;;;0.62;100.00;62062.50;5048644;28;20198;-74
2022/03/07 03:52:56;;;;;;;13.52;6.22;;;;;;;0.59;100.00;62059.44;5047721;28;20530;-74
2022/03/07 03:55:23;;;;;;;10.95;6.68;;;;;;;0.62;100.00;62064.53;5047217;28;20232;-74
2022/03/07 03:57:50;;;;;;;9.98;6.80;;;;;;;0.63;100.00;62063.03;5047421;28;20226;-74
2022/03/07 04:00:18;;;;;;;8.77;5.97;;;;;;;0.67;100.00;62070.16;5050344;28;20261;-74
2022/03/07 04:02:46;;;;;;;12.07;7.13;;;;;;;0.61;100.00;62056.50;5045445;28;20282;-74
2022/03/07 04:05:15;;;;;;;15.35;6.35;;;;;;;0.63;100.00;62065.53;5052959;28;20232;-74
2022/03/07 04:07:43;;;;;;;10.52;7.22;;;;;;;0.67;100.00;62069.66;5052479;28;20237;-74
2022/03/07 04:10:13;;;;;;;6.03;5.07;;;;;;;0.79;100.00;62081.94;5052701;28;20202;-74
2022/03/07 04:12:40;;;;;;;10.18;7.00;;;;;;;0.78;100.00;62080.91;5049739;28;20225;-74
2022/03/07 04:15:08;;;;;;;11.77;6.15;;;;;;;0.68;100.00;62073.16;5047254;28;20201;-74
2022/03/07 04:17:38;;;;;;;9.48;5.90;;;;;;;0.70;100.00;62073.25;5045789;28;20291;-73
2022/03/07 04:20:06;;;;;;;7.22;6.05;;;;;;;0.63;100.00;62068.56;5044725;28;20202;-74
2022/03/07 04:22:35;;;;;;;11.70;6.57;;;;;;;0.50;100.00;62047.72;5043803;28;20415;-74
2022/03/07 04:25:02;;;;;;;8.93;6.03;;;;;;;0.54;100.00;62054.31;5045645;28;20248;-75
2022/03/07 04:27:28;;;;;;;8.43;6.72;;;;;;;0.45;100.00;62042.09;5029922;28;20238;-74
2022/03/07 04:29:57;;;;;;;13.02;6.30;;;;;;;0.36;100.00;62035.88;5043202;28;20268;-74
2022/03/07 04:32:24;;;;;;;9.48;6.35;;;;;;;0.28;100.00;62027.66;5043322;28;20388;-74
2022/03/07 04:34:51;;;;;;;10.10;6.70;;;;;;;0.42;100.00;62042.03;5044704;28;20553;-74
2022/03/07 04:37:18;;;;;;;9.18;6.93;;;;;;;0.41;100.00;62045.50;5042614;28;20268;-74
2022/03/07 04:39:46;;;;;;;14.68;7.72;;;;;;;0.54;100.00;62056.81;5043913;28;20224;-74
2022/03/07 04:42:13;;;;;;;11.00;6.88;;;;;;;0.62;100.00;62060.00;5044545;28;20217;-75
2022/03/07 04:44:40;;;;;;;17.33;7.40;;;;;;;0.62;100.00;62062.50;5044262;28;20220;-73
2022/03/07 04:47:07;;;;;;;10.98;6.88;;;;;;;0.72;100.00;62072.28;5042772;28;20580;-74
2022/03/07 04:49:34;;;;;;;11.68;6.88;;;;;;;0.80;100.00;62086.00;5036381;28;20491;-74
2022/03/07 04:52:01;;;;;;;13.68;8.68;;;;;;;0.64;100.00;62067.06;5024681;28;20242;-74
2022/03/07 04:54:27;;;;;;;10.75;7.82;;;;;;;0.60;100.00;62064.97;5025253;28;20198;-74
2022/03/07 04:56:56;;;;;;;10.02;6.70;;;;;;;0.62;100.00;62062.00;5040853;28;20222;-74
2022/03/07 04:59:22;;;;;;;10.45;7.07;;;;;;;0.58;100.00;62060.41;5029628;28;20202;-74
2022/03/07 05:01:49;;;;;;;11.85;7.22;;;;;;;0.62;100.00;62065.03;5026348;28;20293;-75
2022/03/07 05:04:16;;;;;;;12.13;6.63;;;;;;;0.52;100.00;62059.28;5042822;28;20241;-74
2022/03/07 05:06:43;;;;;;;12.68;6.90;;;;;;;0.55;100.00;62049.84;5041579;28;20264;-74
2022/03/07 05:09:09;;;;;;;9.05;6.97;;;;;;;0.63;100.00;62063.03;5025174;28;20284;-74
2022/03/07 05:11:37;;;;;;;11.75;6.82;;;;;;;0.60;100.00;62059.97;5025046;28;20468;-74
2022/03/07 05:14:05;;;;;;;12.40;7.57;;;;;;;0.64;100.00;62064.06;5032115;28;20256;-75
2022/03/07 05:16:32;;;;;;;11.95;7.75;;;;;;;0.77;100.00;62077.41;5048451;28;20202;-73
2022/03/07 05:18:58;;;;;;;12.70;8.20;;;;;;;0.58;100.00;62062.91;5048761;28;20212;-73
2022/03/07 05:21:25;;;;;;;10.18;7.05;;;;;;;0.63;100.00;62063.56;5049864;28;20217;-72
2022/03/07 05:23:52;;;;;;;8.65;6.10;;;;;;;0.63;100.00;62065.53;5047841;28;20221;-72
2022/03/07 05:26:19;;;;;;;12.48;6.30;;;;;;;0.43;100.00;62045.53;5042950;28;20198;-73
2022/03/07 05:28:46;;;;;;;9.73;6.05;;;;;;;0.46;100.00;62043.63;5039171;28;20230;-74
2022/03/07 05:31:15;;;;;;;11.93;7.35;;;;;;;0.30;100.00;62029.72;5038586;28;20266;-73
2022/03/07 05:33:42;;;;;;;10.25;6.25;;;;;;;0.29;100.00;62028.19;5046842;28;20202;-73
2022/03/07 05:36:09;;;;;;;12.60;8.02;;;;;;;0.27;100.00;62026.13;5049068;28;20383;-74
2022/03/07 05:38:36;;;;;;;12.15;7.30;;;;;;;0.28;100.00;62029.66;5048238;28;20522;-74
2022/03/07 05:41:03;;;;;;;12.07;7.28;;;;;;;0.18;100.00;62016.91;5047504;28;20194;-75
2022/03/07 05:43:30;;;;;;;10.40;7.13;;;;;;;0.25;100.00;62024.59;5038238;28;20213;-74
2022/03/07 05:45:57;;;;;;;13.38;6.85;;;;;;;0.38;100.00;62034.91;5047579;28;20237;-74
2022/03/07 05:48:25;;;;;;;10.68;7.55;;;;;;;0.46;100.00;62048.63;5047110;28;20238;-75
2022/03/07 05:50:52;;;;;;;15.02;7.72;;;;;;;0.25;100.00;62029.59;5046141;28;20217;-74
2022/03/07 05:53:21;;;;;;;10.30;7.40;;;;;;;0.27;100.00;62026.66;5045391;28;20233;-76
2022/03/07 05:55:49;;;;;;;11.05;6.93;;;;;;;0.35;100.00;62034.31;5046989;28;20277;-74
2022/03/07 05:58:16;;;;;;;15.38;8.75;;;;;;;0.56;100.00;62063.38;5046661;28;20252;-76
2022/03/07 06:00:42;;;;;;;13.18;8.63;;;;;;;0.65;100.00;62065.09;5043304;28;20268;-74
2022/03/07 06:03:11;;;;;;;9.75;7.43;;;;;;;0.87;100.00;62090.66;5046467;28;20222;-76
2022/03/07 06:05:39;;;;;;;12.50;8.32;;;;;;;0.84;100.00;62084.56;5046728;28;20233;-75
2022/03/07 06:08:06;;;;;;;12.55;7.40;;;;;;;1.01;100.00;62102.53;5046739;28;20232;-75
2022/03/07 06:10:33;;;;;;;13.27;8.18;;;;;;;1.06;100.00;62107.13;5044200;28;20194;-75
2022/03/07 06:13:01;;;;;;;14.20;7.78;;;;;;;1.18;100.00;62119.97;5046936;28;20222;-75
2022/03/07 06:15:28;;;;;;;11.48;8.25;;;;;;;1.09;100.00;62112.72;5047459;28;20198;-74
2022/03/07 06:17:58;;;;;;;13.40;8.30;;;;;;;1.11;100.00;62117.28;5046006;28;20214;-75
2022/03/07 06:20:26;;;;;;;12.07;7.88;;;;;;;1.19;100.00;62120.47;5044272;28;20277;-74
2022/03/07 06:22:54;;;;;;;9.23;7.63;;;;;;;1.35;100.00;62141.91;5046788;28;20539;-74
2022/03/07 06:25:22;;;;;;;12.63;8.25;;;;;;;1.46;100.00;62150.69;5047157;28;20199;-74
2022/03/07 06:27:48;;;;;;;13.45;7.82;;;;;;;1.56;100.00;62160.44;5047849;28;20558;-74
2022/03/07 06:30:15;;;;;;;10.70;6.93;;;;;;;1.68;100.00;62173.25;5028514;28;20245;-74
2022/03/07 06:32:42;;;;;;;8.20;7.15;;;;;;;1.79;100.00;62184.03;5046002;28;20213;-74
2022/03/07 06:35:09;;;;;;;5.72;5.22;;;;;;;1.84;100.00;62192.19;5046824;28;20198;-74
2022/03/07 06:37:36;;;;;;;8.35;5.97;;;;;;;1.42;100.00;62144.06;5045441;28;20261;-74
2022/03/07 06:40:05;;;;;;;8.32;6.53;;;;;;;1.55;100.00;62159.41;5044234;28;20201;-73
2022/03/07 06:42:32;;;;;;;15.05;7.72;;;;;;;1.74;100.00;62176.91;5046942;28;20225;-74
2022/03/07 06:44:59;;;;;;;8.60;6.20;;;;;;;1.92;100.00;62200.41;5051923;28;20202;-73
2022/03/07 06:47:26;;;;;;;8.02;6.18;;;;;;;2.05;100.00;62208.22;5052127;28;20241;-74
2022/03/07 06:49:56;;;;;;;8.07;6.70;;;;;;;2.03;100.00;62206.16;5055626;28;20194;-73
2022/03/07 06:52:24;;;;;;;9.73;6.18;;;;;;;2.10;100.00;62215.88;5054951;28;20236;-72
2022/03/07 06:54:51;;;;;;;10.70;7.35;;;;;;;2.09;100.00;62215.34;5047554;28;20437;-72
2022/03/07 06:57:21;;;;;;;7.18;5.05;;;;;;;1.96;100.00;62201.50;5047619;28;20214;-72
2022/03/07 06:59:48;;;;;;;6.50;5.00;;;;;;;2.14;100.00;62217.97;5046993;28;20304;-72
2022/03/07 07:02:15;;;;;;;8.48;5.20;;;;;;;2.44;100.00;62248.28;5042648;28;20224;-74
2022/03/07 07:04:42;;;;;;;6.68;4.95;;;;;;;2.25;100.00;62226.25;5045589;28;20198;-73
2022/03/07 07:07:08;;;;;;;6.95;5.50;;;;;;;2.63;100.00;62270.31;5044800;28;20229;-72
2022/03/07 07:09:36;;;;;;;5.38;4.72;;;;;;;2.47;100.00;62250.84;5044779;28;20234;-72
2022/03/07 07:12:03;;;;;;;5.72;4.80;;;;;;;2.91;100.00;62299.09;5042761;28;20229;-72
2022/03/07 07:14:32;;;;;;;6.28;4.55;;;;;;;3.24;100.00;62337.50;5044902;28;20210;-73
2022/03/07 07:16:59;;;;;;;8.10;5.57;;;;;;;3.40;100.00;62346.91;5044102;28;20225;-72
2022/03/07 07:19:25;;;;;;;4.18;3.60;;;;;;;3.37;100.00;62343.31;5044053;28;20229;-73
2022/03/07 07:21:52;;;;;;;4.68;4.25;;;;;;;3.44;100.00;62355.56;5048981;28;20221;-72
2022/03/07 07:24:19;;;;;;;5.20;3.58;;;;;;;3.42;100.00;62351.50;5053055;28;20198;-72
2022/03/07 07:26:46;;;;;;;12.32;5.28;;;;;;;2.86;100.00;62295.94;5047113;28;20562;-72
2022/03/07 07:29:13;;;;;;;11.98;4.88;;;;;;;2.97;100.00;62307.75;5043180;28;20237;-72
2022/03/07 07:31:41;;;;;;;3.78;3.50;;;;;;;3.33;100.00;62344.25;5044177;28;20228;-72
2022/03/07 07:34:08;;;;;;;4.90;4.15;;;;;;;3.60;100.00;62374.53;5039239;28;20260;-72
2022/03/07 07:36:34;;;;;;;4.45;4.10;;;;;;;3.85;100.00;62395.19;5043670;28;20581;-72
2022/03/07 07:39:01;;;;;;;9.43;5.95;;;;;;;3.96;100.00;62408.53;5043834;28;20240;-72
2022/03/07 07:41:28;;;;;;;6.72;3.92;;;;;;;4.35;100.00;62446.13;5043546;28;20256;-71
2022/03/07 07:43:55;;;;;;;4.47;3.60;;;;;;;4.40;100.00;62444.22;5042124;28;20828;-71
2022/03/07 07:46:22;;;;;;;7.93;3.85;;;;;;;4.58;100.00;62474.84;5044169;28;20202;-72
2022/03/07 07:48:50;;;;;;;5.28;4.18;;;;;;;4.38;100.00;62451.75;5043156;28;20226;-72
2022/03/07 07:51:17;;;;;;;3.45;3.22;;;;;;;3.49;99.81;62355.66;5043268;28;20202;-72
2022/03/07 07:53:44;;;;;;;5.90;4.38;;;;;;;3.40;100.00;62348.91;5043536;28;20202;-72
2022/03/07 07:56:11;;;;;;;7.25;5.10;;;;;;;3.62;100.00;62371.03;5041921;28;20198;-73
2022/03/07 07:58:39;;;;;;;7.22;5.00;;;;;;;3.79;100.00;62386.00;5039090;28;20402;-72
2022/03/07 08:01:06;;;;;;;6.47;4.30;;;;;;;3.57;100.00;62363.38;5043016;28;20522;-72
2022/03/07 08:03:33;;;;;;;8.63;4.30;;;;;;;3.78;100.00;62385.47;5043850;28;20221;-73
2022/03/07 08:06:01;;;;;;;8.20;4.07;;;;;;;3.86;100.00;62395.72;5042324;28;20198;-72
2022/03/07 08:08:28;;;;;;;7.75;5.63;;;;;;;3.93;100.00;62400.41;5042023;28;20321;-73
2022/03/07 08:10:55;;;;;;;7.97;5.82;;;;;;;3.95;100.00;62402.47;5040866;28;20425;-73
2022/03/07 08:13:22;;;;;;;17.83;7.75;;;;;;;3.91;100.00;62398.88;5043430;28;20218;-73
2022/03/07 08:15:49;;;;;;;6.95;5.13;;;;;;;3.97;100.00;62410.06;5042391;28;20201;-73
2022/03/07 08:18:16;;;;;;;5.63;4.03;;;;;;;4.07;99.73;62415.31;5041332;28;20284;-73
2022/03/07 08:20:43;;;;;;;4.03;3.63;;;;;;;3.91;98.50;62400.88;5038645;28;20503;-73
2022/03/07 08:23:11;;;;;;;3.22;3.03;;;;;;;3.59;99.08;62367.97;5041510;28;20221;-73
2022/03/07 08:25:38;;;;;;;6.53;4.45;;;;;;;3.76;100.00;62385.44;5043993;28;20202;-72
2022/03/07 08:28:05;;;;;;;8.40;3.88;;;;;;;3.94;100.00;62401.41;5043523;28;20229;-73
2022/03/07 08:30:33;;;;;;;6.72;4.40;;;;;;;3.82;99.55;62392.13;5041291;28;20451;-73
2022/03/07 08:33:00;;;;;;;5.55;4.68;;;;;;;3.98;99.65;62408.06;5041659;28;20240;-73
2022/03/07 08:35:27;;;;;;;7.35;4.85;;;;;;;3.66;98.49;62375.16;5043138;28;20491;-73
2022/03/07 08:37:55;;;;;;;6.80;4.97;;;;;;;3.22;100.00;62330.94;5043252;28;20218;-73
2022/03/07 08:40:24;;;;;;;7.05;6.35;;;;;;;3.35;100.00;62341.78;5040628;28;20206;-73
2022/03/07 08:42:51;;;;;;;5.53;4.15;;;;;;;3.49;100.00;62356.19;5043335;28;20464;-72
2022/03/07 08:45:18;;;;;;;5.57;5.03;;;;;;;3.40;100.00;62351.97;5043985;28;20502;-73
2022/03/07 08:47:45;;;;;;;13.60;9.88;;;;;;;3.33;100.00;62341.75;5042951;28;20222;-72
2022/03/07 08:50:15;;;;;;;8.52;7.28;;;;;;;3.59;100.00;62370.97;5047483;28;20304;-73
2022/03/07 08:52:41;;;;;;;5.78;5.25;;;;;;;3.81;100.00;62390.56;5045475;28;20218;-73
2022/03/07 08:55:09;;;;;;;8.80;7.75;;;;;;;3.76;100.00;62387.97;5046361;28;20255;-74
2022/03/07 08:57:38;;;;;;;7.70;5.82;;;;;;;3.54;100.00;62363.31;5049470;28;20217;-72
2022/03/07 09:00:08;;;;;;;7.03;5.75;;;;;;;3.60;100.00;62366.97;5047601;28;20210;-73
2022/03/07 09:02:35;;;;;;;17.10;14.40;;;;;;;3.47;100.00;62354.13;5048351;28;20218;-73
2022/03/07 09:05:01;;;;;;;4.65;4.28;;;;;;;2.95;100.00;62305.69;5048876;28;20213;-74
2022/03/07 09:07:28;;;;;;;6.10;5.15;;;;;;;2.65;100.00;62274.34;5045864;28;20228;-73
2022/03/07 09:09:56;;;;;;;6.07;5.55;;;;;;;2.77;100.00;62284.16;5048493;28;20288;-72
2022/03/07 09:12:27;;;;;;;5.70;5.13;;;;;;;3.06;100.00;62317.00;5047382;28;20225;-74
2022/03/07 09:14:56;;;;;;;6.30;4.32;;;;;;;2.82;100.00;62289.31;5045841;28;20261;-73
2022/03/07 09:17:23;;;;;;;4.57;4.18;;;;;;;2.67;100.00;62269.41;5045496;28;20252;-73
2022/03/07 09:19:50;;;;;;;4.15;3.78;;;;;;;2.52;100.00;62256.47;5049898;28;20194;-74
2022/03/07 09:22:17;;;;;;;4.10;3.80;;;;;;;2.85;100.00;62290.41;5050585;28;20245;-73
2022/03/07 09:24:45;;;;;;;3.97;3.63;;;;;;;3.09;100.00;62322.59;5057528;28;20198;-73
2022/03/07 09:27:11;;;;;;;3.97;3.40;;;;;;;2.80;100.00;62287.78;5056514;28;20210;-72
2022/03/07 09:29:38;;;;;;;3.55;3.25;;;;;;;2.71;100.00;62275.50;5058530;28;20236;-73
2022/03/07 09:32:07;;;;;;;4.78;4.38;;;;;;;2.91;100.00;62303.59;5058120;28;20218;-73
2022/03/07 09:34:35;;;;;;;6.50;4.18;;;;;;;3.10;100.00;62318.09;5055035;28;20236;-73
2022/03/07 09:37:04;;;;;;;4.82;4.20;;;;;;;3.15;100.00;62323.22;5049831;28;20294;-73
2022/03/07 09:39:31;;;;;;;4.85;4.20;;;;;;;3.22;100.00;62327.91;5047670;28;20198;-73
2022/03/07 09:41:58;;;;;;;4.15;3.75;;;;;;;3.50;100.00;62359.72;5039580;28;20222;-73
2022/03/07 09:44:25;;;;;;;5.03;3.88;;;;;;;3.30;100.00;62338.66;5045237;28;20198;-72
2022/03/07 09:46:52;;;;;;;4.75;3.65;;;;;;;3.48;100.00;62357.16;5046500;28;20264;-73
2022/03/07 09:49:20;;;;;;;5.00;4.13;;;;;;;3.47;100.00;62356.13;5044414;28;20538;-73
2022/03/07 09:51:47;;;;;;;4.88;3.17;;;;;;;3.30;100.00;62336.13;5045008;28;20232;-72
2022/03/07 09:54:14;;;;;;;4.43;3.67;;;;;;;3.48;100.00;62349.59;5043087;28;20190;-73
2022/03/07 09:56:41;;;;;;;4.18;3.60;;;;;;;4.04;100.00;62412.22;5046125;28;20540;-72
2022/03/07 09:59:08;;;;;;;5.53;3.88;;;;;;;4.32;98.22;62443.56;5045594;28;20201;-73
2022/03/07 10:01:36;;;;;;;4.55;4.13;;;;;;;4.19;97.43;62434.72;5045852;28;20214;-73
2022/03/07 10:04:06;;;;;;;7.53;4.28;;;;;;;3.53;98.45;62359.78;5044355;28;20198;-72
2022/03/07 10:06:35;;;;;;;6.00;4.22;;;;;;;3.83;100.00;62392.63;5045239;28;20582;-71
2022/03/07 10:09:03;;;;;;;5.38;4.38;;;;;;;3.93;100.00;62405.97;5045982;28;20230;-72
2022/03/07 10:11:33;;;;;;;4.70;4.40;;;;;;;3.87;100.00;62394.75;5045050;28;20224;-72
2022/03/07 10:14:02;;;;;;;5.35;4.20;;;;;;;3.70;99.12;62379.25;5043361;28;20483;-72
2022/03/07 10:16:37;;;;;;;3.97;3.67;;;;;;;3.84;100.00;62393.66;5044301;28;20206;-72
2022/03/07 10:19:08;;;;;;;4.75;3.58;;;;;;;3.63;99.46;62372.06;5045924;28;20272;-73
2022/03/07 10:21:36;;;;;;;4.90;4.50;;;;;;;3.81;99.84;62391.09;5043947;28;20230;-72
2022/03/07 10:24:04;;;;;;;5.47;3.97;;;;;;;3.78;99.45;62384.97;5043553;28;20542;-73
2022/03/07 10:26:34;;;;;;;7.15;4.97;;;;;;;3.64;100.00;62370.59;5042219;28;20236;-71
2022/03/07 10:29:04;;;;;;;5.78;4.38;;;;;;;4.30;99.21;62438.97;5043075;28;20237;-72
2022/03/07 10:31:31;;;;;;;4.70;4.30;;;;;;;4.71;96.18;62488.75;5044858;28;20202;-72
2022/03/07 10:34:03;;;;;;;6.80;4.78;;;;;;;4.77;94.67;62488.84;5045552;28;20248;-72
2022/03/07 10:36:34;;;;;;;6.05;5.03;;;;;;;4.59;93.52;62473.88;5043022;28;20206;-73
2022/03/07 10:39:05;;;;;;;7.13;5.43;;;;;;;4.63;92.93;62475.47;5041842;28;20491;-72
2022/03/07 10:41:37;;;;;;;6.30;4.90;;;;;;;4.22;93.44;62438.31;5043661;28;20194;-71
2022/03/07 10:44:05;;;;;;;5.60;4.78;;;;;;;4.19;95.95;62432.72;5051407;28;20209;-74
2022/03/07 10:46:32;;;;;;;5.97;4.80;;;;;;;3.85;96.09;62395.19;5050568;28;20258;-75
2022/03/07 10:48:59;;;;;;;7.63;6.30;;;;;;;3.95;97.99;62410.03;5046307;28;20454;-76
2022/03/07 10:51:26;;;;;;;9.10;6.07;;;;;;;3.63;98.27;62372.06;5045502;28;20232;-75
2022/03/07 10:53:54;;;;;;;7.88;7.05;;;;;;;2.76;100.00;62283.16;5043953;28;20226;-76
2022/03/07 10:56:24;;;;;;;11.25;6.70;;;;;;;2.51;100.00;62257.47;5042012;28;20216;-75
2022/03/07 10:58:54;;;;;;;9.95;7.43;;;;;;;2.45;100.00;62254.31;5045356;28;20210;-75
2022/03/07 11:01:29;;;;;;;9.98;7.45;;;;;;;2.28;100.00;62234.88;5044131;28;20194;-75
2022/03/07 11:03:56;;;;;;;13.43;8.45;;;;;;;2.36;100.00;62243.06;5043006;28;20197;-76
2022/03/07 11:06:23;;;;;;;13.15;8.48;;;;;;;2.36;100.00;62238.06;5044182;28;20206;-75
2022/03/07 11:08:50;;;;;;;12.68;8.25;;;;;;;2.28;100.00;62227.34;5042517;28;20403;-75
2022/03/07 11:11:18;;;;;;;11.75;7.90;;;;;;;2.04;100.00;62204.69;5041168;28;20222;-74
2022/03/07 11:13:50;;;;;;;13.20;8.50;;;;;;;2.21;100.00;62222.13;5038784;28;20206;-74
2022/03/07 11:16:18;;;;;;;10.55;8.00;;;;;;;2.27;100.00;62231.34;5044458;28;20210;-75
2022/03/07 11:18:52;;;;;;;12.32;8.85;;;;;;;2.24;100.00;62233.25;5044239;28;20197;-74
2022/03/07 11:21:20;;;;;;;13.55;9.25;;;;;;;2.15;100.00;62221.53;5032913;28;20236;-74
2022/03/07 11:23:47;;;;;;;18.35;10.23;;;;;;;1.94;100.00;62197.44;5044838;28;20205;-74
2022/03/07 11:26:16;;;;;;;16.02;9.35;;;;;;;1.71;100.00;62173.31;5043997;28;20209;-73
2022/03/07 11:28:43;;;;;;;14.75;9.35;;;;;;;1.50;100.00;62154.78;5043359;28;20202;-74
2022/03/07 11:31:20;;;;;;;14.98;10.63;;;;;;;1.56;100.00;62160.44;5042391;28;20252;-74
2022/03/07 11:33:52;;;;;;;17.73;11.55;;;;;;;1.94;100.00;62201.94;5043668;28;20209;-74